Forside
METAR-TAF:

METAR-TAF

Lufthavne :

Prairie du Chien Municipal Airport

Prairie du Chien, Wisconsin, USA

Breddekreds: 43-01-19N, længdekreds: 091-07-29W, højde: 201 m

Aktuelle vejr

Denne rapport blev lavet for 14 minutter siden, kl. 18:15 UTC
Vind 11 kt fra vestnordvest
Temperatur 6°C
Fugtighed 75%
Tryk 1017 hPa
Sigt: 16.1 km
Spredte skyer i en højde af 2600 ft
Brudte skyer i en højde af 6500 ft
Overskyet i en højde af 7500 ft

METAR: KPDC 031815Z AUTO 30011KT 10SM SCT026 BKN065 OVC075 06/02 A3003 RMK AO2 T00610021

Tid: 13:29 (18:29 UTC)


TAF: fraværende

Vejrobservationer og prognoser fra mere end 4000 lufthavne (METAR og TAF).

De gule og røde prikker repræsenterer de meteorologiske stationer.

Flyt musen over at se navnet på stationen.

Så klik over at se vejr observationer og prognoser.

At skifte det kort: Klik på de grønne knapper med et sort kors for at zoome ind; på den grønne knap med en bindestreg for at zoome ud; eller på de grønne pile for tilstødende kort.


METAR-TAF: